createdAt,value
2017-05-30T00:02:07.021Z,15.62
2017-05-30T00:04:36.101Z,14.34
2017-05-30T00:07:05.254Z,14.82
2017-05-30T00:09:33.332Z,15.56
2017-05-30T00:12:02.211Z,12.94
2017-05-30T00:14:31.175Z,11.98
2017-05-30T00:17:00.810Z,13.90
2017-05-30T00:19:29.671Z,11.76
2017-05-30T00:21:58.512Z,14.10
2017-05-30T00:24:27.364Z,15.46
2017-05-30T00:26:56.199Z,13.28
2017-05-30T00:29:25.070Z,12.80
2017-05-30T00:31:53.925Z,12.04
2017-05-30T00:34:22.907Z,10.78
2017-05-30T00:36:51.757Z,14.74
2017-05-30T00:39:20.607Z,13.36
2017-05-30T00:41:49.460Z,14.66
2017-05-30T00:44:17.535Z,14.96
2017-05-30T00:46:46.385Z,13.40
2017-05-30T00:49:15.226Z,13.56
2017-05-30T00:51:44.071Z,15.02
2017-05-30T00:54:12.983Z,15.02
2017-05-30T00:56:41.820Z,15.22
2017-05-30T00:59:10.659Z,13.40
2017-05-30T01:01:39.515Z,12.14
2017-05-30T01:04:08.386Z,14.72
2017-05-30T01:06:37.225Z,16.30
2017-05-30T01:09:06.067Z,17.22
2017-05-30T01:11:34.924Z,16.86
2017-05-30T01:14:03.882Z,14.64
2017-05-30T01:16:32.729Z,15.52
2017-05-30T01:19:01.569Z,11.50
2017-05-30T01:21:30.427Z,16.24
2017-05-30T01:23:59.266Z,15.16
2017-05-30T01:26:28.108Z,15.10
2017-05-30T01:28:56.967Z,12.78
2017-05-30T01:31:25.798Z,11.38
2017-05-30T01:33:54.661Z,14.42
2017-05-30T01:36:23.513Z,11.68
2017-05-30T01:38:52.373Z,12.92
2017-05-30T01:41:21.211Z,14.16
2017-05-30T01:43:50.047Z,15.22
2017-05-30T01:46:18.897Z,15.00
2017-05-30T01:48:47.732Z,13.84
2017-05-30T01:51:16.579Z,12.94
2017-05-30T01:53:44.689Z,12.60
2017-05-30T01:56:13.530Z,13.52
2017-05-30T01:58:42.377Z,15.40
2017-05-30T02:01:11.208Z,14.08
2017-05-30T02:03:40.063Z,14.50
2017-05-30T02:06:08.939Z,13.86
2017-05-30T02:08:37.779Z,15.00
2017-05-30T02:11:06.620Z,13.90
2017-05-30T02:13:35.610Z,11.36
2017-05-30T02:16:04.447Z,11.54
2017-05-30T02:18:33.296Z,11.74
2017-05-30T02:21:02.151Z,11.00
2017-05-30T02:23:31.013Z,11.52
2017-05-30T02:26:00.073Z,12.24
2017-05-30T02:28:28.909Z,11.68
2017-05-30T02:33:36.386Z,11.94
2017-05-30T02:36:05.282Z,12.06
2017-05-30T02:38:34.133Z,12.04
2017-05-30T02:41:02.961Z,11.70
2017-05-30T02:43:31.804Z,12.94
2017-05-30T02:46:00.648Z,12.64
2017-05-30T02:48:29.495Z,12.18
2017-05-30T02:50:57.569Z,12.36
2017-05-30T02:53:26.428Z,13.18
2017-05-30T02:55:55.262Z,12.48
2017-05-30T02:58:24.107Z,12.44
2017-05-30T03:00:52.959Z,11.96
2017-05-30T03:03:21.809Z,13.18
2017-05-30T03:05:50.657Z,11.70
2017-05-30T03:08:19.505Z,11.30
2017-05-30T03:10:48.367Z,13.38
2017-05-30T03:13:17.308Z,12.82
2017-05-30T03:15:46.147Z,11.46
2017-05-30T03:18:14.983Z,11.08
2017-05-30T03:20:43.815Z,10.46
2017-05-30T03:23:12.649Z,15.94
2017-05-30T03:25:41.496Z,13.58
2017-05-30T03:28:10.358Z,10.98
2017-05-30T03:30:39.190Z,9.90
2017-05-30T03:33:08.020Z,9.62
2017-05-30T03:35:36.852Z,8.00
2017-05-30T03:38:05.708Z,8.30
2017-05-30T03:40:34.539Z,8.28
2017-05-30T03:43:03.385Z,7.60
2017-05-30T03:45:32.225Z,7.88
2017-05-30T03:48:01.065Z,7.42
2017-05-30T03:50:29.141Z,6.14
2017-05-30T03:52:57.978Z,6.46
2017-05-30T03:55:26.804Z,6.10
2017-05-30T03:57:55.660Z,7.38
2017-05-30T04:00:24.509Z,6.70
2017-05-30T04:02:53.368Z,7.84
2017-05-30T04:05:22.205Z,7.10
2017-05-30T04:07:51.043Z,6.90
2017-05-30T04:10:19.879Z,6.56
2017-05-30T04:12:48.712Z,6.96
2017-05-30T04:15:17.564Z,6.22
2017-05-30T04:17:46.395Z,6.86
2017-05-30T04:20:15.251Z,7.04
2017-05-30T04:22:44.081Z,6.52
2017-05-30T04:25:12.911Z,6.66
2017-05-30T04:27:41.751Z,6.12
2017-05-30T04:30:10.578Z,6.30
2017-05-30T04:32:39.423Z,8.26
2017-05-30T04:35:08.258Z,6.50
2017-05-30T04:37:37.109Z,7.04
2017-05-30T04:40:05.949Z,6.28
2017-05-30T04:42:34.780Z,6.96
2017-05-30T04:45:03.611Z,6.92
2017-05-30T04:47:32.449Z,6.44
2017-05-30T04:50:01.288Z,9.40
2017-05-30T04:52:30.360Z,7.36
2017-05-30T04:54:59.293Z,7.06
2017-05-30T04:57:28.131Z,6.24
2017-05-30T04:59:56.961Z,7.40
2017-05-30T05:02:25.805Z,7.60
2017-05-30T05:04:53.896Z,6.92
2017-05-30T05:07:22.739Z,6.36
2017-05-30T05:09:51.568Z,7.10
2017-05-30T05:12:20.408Z,6.98
2017-05-30T05:14:49.244Z,9.24
2017-05-30T05:17:18.075Z,18.80
2017-05-30T05:19:46.923Z,7.84
2017-05-30T05:22:15.775Z,13.18
2017-05-30T05:24:44.665Z,11.94
2017-05-30T05:27:13.493Z,9.48
2017-05-30T05:29:42.333Z,8.62
2017-05-30T05:32:11.179Z,9.18
2017-05-30T05:34:40.010Z,11.16
2017-05-30T05:37:08.872Z,10.74
2017-05-30T05:39:37.722Z,12.20
2017-05-30T05:42:06.576Z,11.48
2017-05-30T05:44:35.417Z,10.24
2017-05-30T05:47:04.255Z,9.62
2017-05-30T05:49:33.116Z,9.76
2017-05-30T05:52:01.949Z,8.18
2017-05-30T05:54:30.788Z,11.12
2017-05-30T05:56:59.892Z,10.22
2017-05-30T05:59:28.724Z,8.56
2017-05-30T06:01:57.552Z,9.18
2017-05-30T06:04:26.442Z,8.48
2017-05-30T06:06:55.233Z,11.24
2017-05-30T06:09:24.073Z,9.16
2017-05-30T06:11:52.931Z,8.14
2017-05-30T06:14:21.764Z,10.32
2017-05-30T06:16:50.627Z,7.92
2017-05-30T06:19:19.476Z,8.48
2017-05-30T06:21:48.307Z,5.88
2017-05-30T06:24:17.158Z,6.76
2017-05-30T06:26:45.984Z,7.06
2017-05-30T06:29:14.829Z,7.44
2017-05-30T06:31:43.693Z,11.08
2017-05-30T06:34:12.625Z,5.72
2017-05-30T06:36:41.471Z,6.48
2017-05-30T06:39:10.311Z,6.36
2017-05-30T06:41:38.392Z,6.26
2017-05-30T06:44:07.236Z,5.86
2017-05-30T06:46:36.102Z,7.32
2017-05-30T06:49:04.948Z,8.32
2017-05-30T06:51:33.028Z,6.60
2017-05-30T06:54:01.882Z,7.08
2017-05-30T06:56:29.952Z,7.64
2017-05-30T06:58:58.798Z,6.94
2017-05-30T07:01:27.624Z,7.44
2017-05-30T07:03:56.464Z,8.52
2017-05-30T07:06:25.543Z,7.36
2017-05-30T07:08:54.369Z,7.02
2017-05-30T07:11:23.201Z,8.98
2017-05-30T07:13:52.032Z,8.06
2017-05-30T07:16:20.933Z,8.08
2017-05-30T07:18:49.812Z,7.46
2017-05-30T07:21:18.645Z,8.08
2017-05-30T07:23:47.476Z,6.02
2017-05-30T07:26:16.331Z,5.82
2017-05-30T07:28:45.176Z,6.26
2017-05-30T07:31:14.008Z,6.08
2017-05-30T07:33:42.906Z,5.58
2017-05-30T07:36:11.730Z,7.14
2017-05-30T07:38:40.568Z,6.90
2017-05-30T07:41:09.399Z,6.70
2017-05-30T07:43:38.255Z,14.44
2017-05-30T07:46:07.089Z,7.64
2017-05-30T07:48:35.924Z,8.22
2017-05-30T07:51:04.777Z,7.98
2017-05-30T07:53:33.625Z,6.54
2017-05-30T07:56:02.463Z,9.98
2017-05-30T07:58:31.290Z,8.66
2017-05-30T08:01:00.193Z,6.66
2017-05-30T08:03:29.132Z,6.66
2017-05-30T08:05:58.015Z,6.58
2017-05-30T08:08:26.856Z,6.16
2017-05-30T08:10:55.697Z,6.20
2017-05-30T08:13:24.537Z,7.90
2017-05-30T08:15:53.373Z,5.58
2017-05-30T08:18:22.228Z,5.22
2017-05-30T08:20:51.065Z,5.32
2017-05-30T08:23:19.896Z,6.48
2017-05-30T08:25:48.749Z,5.00
2017-05-30T08:28:17.576Z,5.92
2017-05-30T08:30:46.416Z,7.42
2017-05-30T08:33:15.263Z,5.24
2017-05-30T08:35:44.113Z,5.30
2017-05-30T08:38:12.944Z,6.26
2017-05-30T08:40:42.096Z,6.40
2017-05-30T08:43:10.943Z,6.28
2017-05-30T08:45:39.778Z,5.58
2017-05-30T08:48:08.620Z,5.18
2017-05-30T08:50:37.453Z,5.00
2017-05-30T08:53:06.310Z,5.70
2017-05-30T08:55:35.136Z,5.42
2017-05-30T08:58:04.007Z,5.30
2017-05-30T09:00:32.847Z,5.10
2017-05-30T09:03:01.681Z,4.84
2017-05-30T09:05:30.563Z,5.84
2017-05-30T09:07:59.412Z,5.16
2017-05-30T09:10:28.265Z,7.52
2017-05-30T09:12:57.112Z,4.40
2017-05-30T09:15:25.975Z,6.00
2017-05-30T09:17:54.807Z,4.32
2017-05-30T09:20:23.636Z,4.64
2017-05-30T09:22:52.479Z,4.64
2017-05-30T09:25:21.312Z,3.80
2017-05-30T09:27:50.233Z,4.06
2017-05-30T09:30:19.088Z,3.70
2017-05-30T09:32:47.940Z,3.36
2017-05-30T09:35:17.622Z,4.12
2017-05-30T09:37:46.463Z,3.78
2017-05-30T09:40:15.440Z,4.80
2017-05-30T09:42:44.273Z,3.48
2017-05-30T09:45:13.199Z,3.30
2017-05-30T09:47:42.034Z,3.54
2017-05-30T09:50:10.889Z,3.62
2017-05-30T09:52:39.711Z,3.78
2017-05-30T09:55:08.566Z,4.18
2017-05-30T09:57:37.409Z,3.62
2017-05-30T10:00:06.264Z,3.12
2017-05-30T10:02:35.267Z,2.78
2017-05-30T10:05:04.095Z,2.70
2017-05-30T10:07:32.950Z,2.70
2017-05-30T10:10:01.788Z,2.20
2017-05-30T10:12:30.628Z,5.98
2017-05-30T10:14:59.464Z,5.88
2017-05-30T10:17:28.300Z,5.06
2017-05-30T10:19:57.139Z,3.50
2017-05-30T10:22:25.969Z,4.30
2017-05-30T10:24:54.833Z,3.74
2017-05-30T10:27:23.671Z,3.48
2017-05-30T10:29:52.507Z,4.34
2017-05-30T10:32:21.339Z,3.34
2017-05-30T10:34:50.166Z,3.10
2017-05-30T10:37:19.012Z,3.78
2017-05-30T10:39:47.841Z,2.90
2017-05-30T10:42:16.687Z,3.34
2017-05-30T10:44:45.517Z,3.28
2017-05-30T10:47:14.357Z,4.70
2017-05-30T10:49:43.208Z,3.54
2017-05-30T10:52:12.039Z,3.52
2017-05-30T10:54:40.890Z,4.20
2017-05-30T10:57:09.713Z,4.02
2017-05-30T10:59:38.558Z,3.60
2017-05-30T11:02:07.391Z,4.82
2017-05-30T11:04:35.466Z,3.70
2017-05-30T11:07:04.309Z,4.06
2017-05-30T11:09:33.138Z,4.08
2017-05-30T11:12:01.997Z,3.62
2017-05-30T11:14:30.829Z,3.68
2017-05-30T11:17:00.060Z,3.96
2017-05-30T11:19:28.881Z,3.78
2017-05-30T11:21:57.708Z,3.44
2017-05-30T11:24:26.541Z,4.08
2017-05-30T11:26:55.392Z,3.60
2017-05-30T11:29:24.252Z,3.78
2017-05-30T11:31:53.081Z,3.60
2017-05-30T11:34:21.919Z,3.80
2017-05-30T11:36:50.016Z,3.50
2017-05-30T11:39:18.848Z,3.18
2017-05-30T11:41:47.694Z,3.38
2017-05-30T11:44:16.537Z,3.62
2017-05-30T11:46:45.398Z,3.54
2017-05-30T11:49:14.238Z,3.30
2017-05-30T11:51:43.064Z,3.32
2017-05-30T11:54:11.899Z,3.40
2017-05-30T11:56:40.731Z,4.44
2017-05-30T11:59:09.767Z,3.72
2017-05-30T12:01:38.599Z,3.54
2017-05-30T12:04:06.692Z,3.38
2017-05-30T12:06:35.518Z,3.60
2017-05-30T12:09:04.353Z,3.88
2017-05-30T12:11:33.192Z,3.30
2017-05-30T12:14:02.040Z,3.40
2017-05-30T12:16:30.887Z,3.60
2017-05-30T12:18:59.721Z,3.70
2017-05-30T12:21:28.579Z,3.68
2017-05-30T12:23:57.408Z,5.18
2017-05-30T12:26:26.255Z,3.70
2017-05-30T12:28:55.309Z,3.56
2017-05-30T12:31:24.140Z,3.36
2017-05-30T12:33:52.992Z,3.48
2017-05-30T12:36:21.841Z,3.12
2017-05-30T12:38:50.719Z,3.44
2017-05-30T12:41:19.561Z,3.44
2017-05-30T12:43:48.398Z,3.72
2017-05-30T12:46:17.245Z,6.04
2017-05-30T12:48:46.087Z,3.48
2017-05-30T12:51:14.168Z,3.46
2017-05-30T12:53:43.013Z,3.26
2017-05-30T12:56:11.877Z,4.94
2017-05-30T12:58:40.712Z,3.28
2017-05-30T13:01:09.544Z,3.26
2017-05-30T13:03:38.389Z,3.64
2017-05-30T13:06:07.250Z,3.04
2017-05-30T13:08:36.089Z,3.32
2017-05-30T13:11:04.922Z,3.88
2017-05-30T13:13:33.792Z,2.72
2017-05-30T13:16:01.856Z,2.70
2017-05-30T13:18:30.690Z,3.06
2017-05-30T13:20:59.524Z,2.84
2017-05-30T13:23:28.368Z,4.46
2017-05-30T13:28:54.713Z,3.92
2017-05-30T13:31:23.569Z,3.30
2017-05-30T13:33:51.639Z,3.38
2017-05-30T13:36:20.468Z,3.38
2017-05-30T13:38:49.315Z,3.78
2017-05-30T13:41:18.144Z,3.48
2017-05-30T13:43:47.020Z,3.42
2017-05-30T13:46:15.863Z,3.64
2017-05-30T13:48:44.707Z,3.82
2017-05-30T13:51:13.534Z,3.46
2017-05-30T13:53:42.366Z,3.84
2017-05-30T13:56:11.211Z,4.38
2017-05-30T13:58:40.270Z,3.86
2017-05-30T14:01:09.148Z,4.12
2017-05-30T14:03:38.006Z,4.16
2017-05-30T14:06:06.863Z,4.00
2017-05-30T14:08:35.694Z,3.78
2017-05-30T14:11:04.528Z,3.94
2017-05-30T14:13:33.376Z,4.36
2017-05-30T14:16:02.214Z,3.84
2017-05-30T14:18:31.067Z,3.80
2017-05-30T14:20:59.899Z,4.28
2017-05-30T14:23:28.743Z,4.06
2017-05-30T14:25:57.569Z,4.00
2017-05-30T14:28:26.423Z,3.76
2017-05-30T14:30:55.259Z,6.00
2017-05-30T14:33:24.105Z,4.48
2017-05-30T14:35:52.931Z,4.12
2017-05-30T14:38:21.777Z,3.80
2017-05-30T14:40:50.639Z,3.82
2017-05-30T14:43:19.477Z,3.74
2017-05-30T14:45:48.295Z,3.96
2017-05-30T14:48:17.148Z,4.42
2017-05-30T14:50:45.969Z,4.58
2017-05-30T14:53:14.050Z,4.52
2017-05-30T14:55:42.880Z,4.68
2017-05-30T14:58:11.722Z,4.48
2017-05-30T15:00:40.557Z,4.32
2017-05-30T15:03:09.405Z,4.74
2017-05-30T15:05:38.264Z,4.82
2017-05-30T15:08:07.124Z,4.44
2017-05-30T15:10:35.960Z,4.98
2017-05-30T15:13:04.804Z,4.78
2017-05-30T15:15:33.669Z,6.02
2017-05-30T15:18:02.503Z,5.12
2017-05-30T15:20:31.335Z,4.72
2017-05-30T15:23:00.163Z,5.24
2017-05-30T15:25:28.987Z,4.54
2017-05-30T15:27:57.840Z,5.30
2017-05-30T15:30:26.664Z,5.18
2017-05-30T15:32:55.503Z,6.14
2017-05-30T15:35:24.335Z,5.88
2017-05-30T15:37:53.177Z,5.44
2017-05-30T15:42:59.975Z,5.32
2017-05-30T15:45:28.820Z,5.58
2017-05-30T15:47:57.655Z,5.44
2017-05-30T15:50:26.488Z,6.48
2017-05-30T15:52:54.557Z,6.42
2017-05-30T15:55:23.440Z,6.60
2017-05-30T15:57:52.289Z,5.96
2017-05-30T16:00:21.119Z,6.58
2017-05-30T16:02:49.192Z,9.94
2017-05-30T16:05:18.046Z,10.80
2017-05-30T16:07:46.882Z,6.38
2017-05-30T16:10:15.725Z,5.52
2017-05-30T16:12:44.592Z,6.22
2017-05-30T16:15:13.436Z,5.54
2017-05-30T16:17:42.265Z,6.00
2017-05-30T16:20:11.115Z,6.26
2017-05-30T16:22:39.962Z,6.42
2017-05-30T16:25:08.808Z,8.34
2017-05-30T16:27:37.633Z,6.32
2017-05-30T16:30:06.483Z,6.00
2017-05-30T16:32:35.309Z,7.98
2017-05-30T16:35:04.141Z,9.96
2017-05-30T16:37:32.982Z,6.18
2017-05-30T16:40:01.863Z,7.52
2017-05-30T16:42:29.908Z,6.98
2017-05-30T16:44:58.761Z,6.02
2017-05-30T16:47:27.613Z,6.64
2017-05-30T16:49:56.444Z,7.48
2017-05-30T16:52:25.280Z,6.62
2017-05-30T16:54:54.123Z,7.08
2017-05-30T16:57:22.961Z,7.08
2017-05-30T16:59:51.803Z,6.58
2017-05-30T17:02:20.646Z,6.14
2017-05-30T17:04:49.520Z,6.86
2017-05-30T17:07:18.360Z,6.00
2017-05-30T17:09:47.238Z,6.10
2017-05-30T17:12:16.052Z,5.10
2017-05-30T17:14:44.899Z,6.34
2017-05-30T17:17:13.752Z,6.30
2017-05-30T17:19:42.602Z,5.96
2017-05-30T17:22:11.455Z,5.88
2017-05-30T17:24:40.291Z,5.48
2017-05-30T17:27:09.135Z,5.24
2017-05-30T17:29:37.974Z,5.12
2017-05-30T17:32:06.817Z,5.38
2017-05-30T17:34:35.655Z,5.10
2017-05-30T17:37:04.499Z,5.96
2017-05-30T17:39:33.349Z,5.38
2017-05-30T17:42:02.180Z,5.76
2017-05-30T17:44:31.021Z,5.46
2017-05-30T17:46:59.317Z,5.60
2017-05-30T17:49:28.135Z,5.38
2017-05-30T17:51:56.979Z,5.24
2017-05-30T17:58:34.167Z,5.44
2017-05-30T18:01:03.020Z,5.38
2017-05-30T18:03:31.116Z,4.84
2017-05-30T18:05:59.192Z,5.40
2017-05-30T18:08:28.029Z,6.10
2017-05-30T18:10:56.868Z,5.66
2017-05-30T18:13:25.808Z,6.70
2017-05-30T18:15:54.639Z,5.28
2017-05-30T18:18:23.480Z,5.56
2017-05-30T18:20:52.349Z,5.08
2017-05-30T18:23:21.192Z,5.94
2017-05-30T18:25:50.032Z,6.84
2017-05-30T18:28:18.884Z,6.12
2017-05-30T18:30:47.704Z,5.94
2017-05-30T18:33:16.586Z,6.16
2017-05-30T18:35:45.425Z,6.00
2017-05-30T18:38:14.312Z,7.00
2017-05-30T18:40:43.117Z,6.90
2017-05-30T18:43:11.947Z,7.48
2017-05-30T18:45:40.780Z,7.62
2017-05-30T18:48:09.615Z,6.96
2017-05-30T18:50:38.452Z,7.42
2017-05-30T18:53:07.286Z,7.30
2017-05-30T18:55:35.395Z,8.12
2017-05-30T18:58:04.265Z,7.32
2017-05-30T19:00:33.112Z,7.00
2017-05-30T19:03:01.974Z,8.24
2017-05-30T19:05:30.795Z,6.84
2017-05-30T19:07:59.654Z,7.04
2017-05-30T19:10:28.481Z,7.80
2017-05-30T19:12:57.547Z,7.12
2017-05-30T19:15:26.380Z,6.70
2017-05-30T19:17:55.260Z,7.42
2017-05-30T19:20:24.100Z,8.00
2017-05-30T19:22:52.948Z,8.12
2017-05-30T19:25:21.024Z,7.42
2017-05-30T19:27:49.856Z,7.72
2017-05-30T19:30:18.721Z,7.62
2017-05-30T19:32:47.581Z,8.42
2017-05-30T19:35:16.412Z,7.74
2017-05-30T19:37:45.255Z,8.50
2017-05-30T19:40:14.093Z,7.50
2017-05-30T19:42:43.164Z,8.04
2017-05-30T19:45:11.985Z,8.78
2017-05-30T19:47:40.836Z,8.06
2017-05-30T19:50:09.667Z,8.72
2017-05-30T19:52:38.507Z,8.70
2017-05-30T19:55:07.348Z,8.48
2017-05-30T19:57:36.185Z,7.92
2017-05-30T20:00:05.025Z,7.28
2017-05-30T20:02:33.087Z,7.72
2017-05-30T20:05:01.944Z,9.86
2017-05-30T20:07:30.788Z,8.48
2017-05-30T20:09:59.619Z,8.10
2017-05-30T20:12:28.476Z,9.00
2017-05-30T20:14:57.319Z,9.86
2017-05-30T20:17:26.164Z,10.22
2017-05-30T20:19:55.011Z,9.20
2017-05-30T20:22:23.225Z,7.86
2017-05-30T20:24:52.303Z,9.22
2017-05-30T20:27:21.143Z,10.10
2017-05-30T20:29:50.388Z,9.10
2017-05-30T20:32:19.238Z,7.74
2017-05-30T20:34:48.089Z,10.32
2017-05-30T20:37:16.944Z,9.98
2017-05-30T20:39:45.793Z,9.50
2017-05-30T20:42:14.641Z,9.64
2017-05-30T20:44:43.463Z,9.28
2017-05-30T20:47:12.307Z,11.54
2017-05-30T20:49:41.155Z,10.96
2017-05-30T20:52:10.000Z,12.56
2017-05-30T20:54:38.839Z,10.70
2017-05-30T20:57:07.688Z,10.96
2017-05-30T20:59:36.529Z,10.98
2017-05-30T21:02:05.403Z,12.06
2017-05-30T21:04:34.243Z,10.30
2017-05-30T21:07:03.098Z,11.24
2017-05-30T21:09:31.935Z,10.84
2017-05-30T21:12:00.779Z,9.86
2017-05-30T21:14:29.642Z,10.10
2017-05-30T21:16:58.481Z,10.66
2017-05-30T21:19:27.324Z,10.32
2017-05-30T21:21:56.377Z,10.42
2017-05-30T21:24:25.404Z,10.66
2017-05-30T21:26:54.434Z,10.20
2017-05-30T21:29:23.291Z,10.32
2017-05-30T21:31:51.384Z,9.28
2017-05-30T21:34:19.455Z,10.12
2017-05-30T21:36:48.292Z,10.30
2017-05-30T21:39:17.134Z,13.38
2017-05-30T21:41:45.959Z,10.20
2017-05-30T21:44:14.803Z,11.08
2017-05-30T21:46:43.639Z,10.80
2017-05-30T21:49:12.515Z,10.76
2017-05-30T21:51:41.360Z,9.70
2017-05-30T21:54:10.191Z,11.64
2017-05-30T21:56:39.039Z,10.34
2017-05-30T21:59:07.875Z,11.18
2017-05-30T22:01:36.733Z,12.98
2017-05-30T22:04:04.812Z,13.02
2017-05-30T22:06:33.655Z,10.32
2017-05-30T22:09:02.500Z,12.08
2017-05-30T22:11:31.365Z,13.44
2017-05-30T22:14:00.218Z,11.62
2017-05-30T22:16:29.068Z,11.60
2017-05-30T22:18:57.921Z,15.62
2017-05-30T22:21:26.759Z,15.28
2017-05-30T22:23:55.607Z,12.88
2017-05-30T22:26:23.680Z,13.58
2017-05-30T22:28:52.520Z,13.74
2017-05-30T22:31:21.388Z,12.20
2017-05-30T22:33:50.239Z,12.78
2017-05-30T22:36:19.084Z,15.42
2017-05-30T22:38:47.922Z,12.20
2017-05-30T22:41:16.793Z,12.96
2017-05-30T22:43:45.625Z,13.10
2017-05-30T22:46:14.466Z,13.76
2017-05-30T22:48:43.316Z,13.08
2017-05-30T22:51:12.178Z,16.04
2017-05-30T22:53:40.255Z,15.16
2017-05-30T22:56:09.095Z,12.76
2017-05-30T22:58:37.968Z,13.40
2017-05-30T23:01:06.819Z,13.82
2017-05-30T23:03:35.679Z,14.14
2017-05-30T23:06:04.523Z,12.90
2017-05-30T23:08:33.359Z,13.58
2017-05-30T23:11:02.219Z,13.58
2017-05-30T23:13:31.153Z,12.94
2017-05-30T23:16:00.031Z,13.16
2017-05-30T23:18:28.867Z,14.72
2017-05-30T23:20:57.709Z,14.42
2017-05-30T23:23:25.803Z,14.50
2017-05-30T23:25:54.651Z,14.34
2017-05-30T23:28:23.499Z,15.00
2017-05-30T23:30:52.682Z,13.76
2017-05-30T23:33:21.548Z,14.22
2017-05-30T23:35:50.740Z,15.52
2017-05-30T23:38:19.579Z,14.96
2017-05-30T23:40:48.427Z,15.60
2017-05-30T23:43:17.284Z,15.14
2017-05-30T23:45:46.137Z,16.30
2017-05-30T23:48:14.983Z,15.98
2017-05-30T23:50:43.822Z,19.80
2017-05-30T23:53:12.671Z,16.78
2017-05-30T23:55:41.504Z,14.88
2017-05-30T23:58:10.372Z,14.36
